Time,TemperatureF,DewpointF,PressureIn,WindDirection,WindDirectionDegrees,WindSpeedMPH,WindSpeedGustMPH,Humidity,HourlyPrecipIn,Conditions,Clouds,dailyrainin,SoftwareType,DateUTC
2013-08-30 00:00:00,68.8,62.4,30.02,WSW,248,0.0,0.0,80,2.59,,,4.87,WUHU216HW,2013-08-30 04:00:00,
2013-08-30 00:01:00,68.6,62.2,30.02,West,270,0.0,0.0,80,2.59,,,0.20,WUHU216HW,2013-08-30 04:01:00,
2013-08-30 00:02:00,68.6,62.2,30.02,West,270,0.0,0.0,80,2.59,,,0.20,WUHU216HW,2013-08-30 04:02:00,
2013-08-30 00:07:00,68.2,62.2,30.01,West,270,0.0,0.0,81,2.59,,,0.20,WUHU216HW,2013-08-30 04:07:00,
2013-08-30 00:12:00,68.0,62.1,30.01,West,270,0.0,0.0,81,2.59,,,0.20,WUHU216HW,2013-08-30 04:12:00,
2013-08-30 00:17:00,68.0,62.1,30.01,SSE,158,0.0,0.0,81,2.59,,,0.20,WUHU216HW,2013-08-30 04:17:00,
2013-08-30 00:22:00,68.0,62.4,30.01,South,180,0.0,0.0,82,2.59,,,0.20,WUHU216HW,2013-08-30 04:22:00,
2013-08-30 00:27:00,68.0,62.4,30.01,SW,225,0.0,0.0,82,2.59,,,0.20,WUHU216HW,2013-08-30 04:27:00,
2013-08-30 00:32:00,68.0,62.4,30.01,WSW,248,0.0,0.0,82,2.59,,,0.20,WUHU216HW,2013-08-30 04:32:00,
2013-08-30 00:37:00,68.0,62.4,30.01,SSW,203,0.4,1.8,82,2.59,,,0.20,WUHU216HW,2013-08-30 04:37:00,
2013-08-30 00:42:00,68.0,62.7,30.01,WSW,248,1.1,2.2,83,2.59,,,0.20,WUHU216HW,2013-08-30 04:42:00,
2013-08-30 00:47:00,68.0,62.7,30.01,South,180,0.9,2.2,83,2.59,,,0.20,WUHU216HW,2013-08-30 04:47:00,
2013-08-30 00:52:00,68.0,62.7,30.00,SSW,203,1.1,2.2,83,2.59,,,0.20,WUHU216HW,2013-08-30 04:52:00,
2013-08-30 00:57:00,68.0,63.0,30.00,SW,225,0.7,2.5,84,2.59,,,0.20,WUHU216HW,2013-08-30 04:57:00,
2013-08-30 01:02:00,67.9,62.8,30.00,SW,225,0.7,2.5,84,2.59,,,0.41,WUHU216HW,2013-08-30 05:02:00,
2013-08-30 01:07:00,67.9,62.8,30.00,WSW,248,0.9,1.8,84,2.59,,,0.41,WUHU216HW,2013-08-30 05:07:00,
2013-08-30 01:12:00,67.9,62.8,30.00,SW,225,1.1,1.8,84,2.59,,,0.41,WUHU216HW,2013-08-30 05:12:00,
2013-08-30 01:17:00,67.9,62.8,30.00,SW,225,1.3,2.0,84,2.59,,,0.41,WUHU216HW,2013-08-30 05:17:00,
2013-08-30 01:22:00,67.9,62.8,30.00,SSW,203,0.4,2.0,84,2.59,,,0.41,WUHU216HW,2013-08-30 05:22:00,
2013-08-30 01:27:00,67.7,62.6,30.00,SSW,203,0.7,2.0,84,2.59,,,0.41,WUHU216HW,2013-08-30 05:27:00,
2013-08-30 01:32:00,67.7,62.6,30.00,SSW,203,1.1,2.0,84,2.59,,,0.41,WUHU216HW,2013-08-30 05:32:00,
2013-08-30 01:37:00,67.7,62.6,30.00,SW,225,1.3,1.8,84,2.59,,,0.41,WUHU216HW,2013-08-30 05:37:00,
2013-08-30 01:42:00,67.7,63.0,30.00,SSW,203,2.0,2.0,85,2.59,,,0.41,WUHU216HW,2013-08-30 05:42:00,
2013-08-30 01:47:00,67.5,62.8,30.00,South,180,1.1,2.0,85,2.59,,,0.41,WUHU216HW,2013-08-30 05:47:00,
2013-08-30 01:52:00,67.5,62.8,30.00,SSW,203,1.3,2.0,85,2.59,,,0.41,WUHU216HW,2013-08-30 05:52:00,
2013-08-30 01:57:00,67.5,62.8,29.99,SSW,203,0.4,1.6,85,2.59,,,0.41,WUHU216HW,2013-08-30 05:57:00,
2013-08-30 02:02:00,67.3,62.6,29.99,SW,225,1.1,2.5,85,2.59,,,0.61,WUHU216HW,2013-08-30 06:02:00,
2013-08-30 02:07:00,67.3,62.6,29.99,South,180,0.4,2.5,85,2.59,,,0.61,WUHU216HW,2013-08-30 06:07:00,
2013-08-30 02:12:00,67.3,62.6,29.99,SW,225,0.4,2.0,85,2.59,,,0.61,WUHU216HW,2013-08-30 06:12:00,
2013-08-30 02:17:00,67.3,62.6,30.00,South,180,0.0,2.0,85,2.59,,,0.61,WUHU216HW,2013-08-30 06:17:00,
2013-08-30 02:22:00,67.3,62.6,29.99,SSW,203,0.0,1.1,85,2.59,,,0.61,WUHU216HW,2013-08-30 06:22:00,
2013-08-30 02:27:00,67.3,62.6,29.99,SSE,158,0.4,1.6,85,2.59,,,0.61,WUHU216HW,2013-08-30 06:27:00,
2013-08-30 02:32:00,67.3,62.6,29.99,SSE,158,1.6,1.6,85,2.59,,,0.61,WUHU216HW,2013-08-30 06:32:00,
2013-08-30 02:37:00,67.1,62.5,29.99,SSE,158,0.0,1.6,85,2.59,,,0.61,WUHU216HW,2013-08-30 06:37:00,
2013-08-30 02:42:00,67.1,62.5,29.99,SW,225,1.1,1.6,85,2.59,,,0.61,WUHU216HW,2013-08-30 06:42:00,
2013-08-30 02:47:00,67.0,62.3,29.99,SSW,203,1.3,2.0,85,2.59,,,0.61,WUHU216HW,2013-08-30 06:47:00,
2013-08-30 02:52:00,67.0,62.3,29.99,SW,225,0.9,2.0,85,2.59,,,0.61,WUHU216HW,2013-08-30 06:52:00,
2013-08-30 02:57:00,67.0,62.3,29.99,WSW,248,0.4,1.1,85,2.59,,,0.61,WUHU216HW,2013-08-30 06:57:00,
2013-08-30 03:02:00,67.0,62.3,29.99,SSW,203,1.1,1.3,85,2.59,,,0.81,WUHU216HW,2013-08-30 07:02:00,
2013-08-30 03:07:00,67.0,62.3,29.99,SW,225,0.0,1.3,85,2.59,,,0.81,WUHU216HW,2013-08-30 07:07:00,
2013-08-30 03:12:00,66.8,62.1,29.99,SW,225,0.0,1.1,85,2.59,,,0.81,WUHU216HW,2013-08-30 07:12:00,
2013-08-30 03:17:00,66.8,62.1,29.98,SW,225,0.0,1.1,85,2.59,,,0.81,WUHU216HW,2013-08-30 07:17:00,
2013-08-30 03:22:00,66.8,62.1,29.98,SW,225,0.7,1.1,85,2.59,,,0.81,WUHU216HW,2013-08-30 07:22:00,
2013-08-30 03:27:00,66.6,61.9,29.99,SW,225,0.0,1.8,85,2.59,,,0.81,WUHU216HW,2013-08-30 07:27:00,
2013-08-30 03:32:00,66.6,61.9,29.98,SSE,158,0.0,1.8,85,2.59,,,0.81,WUHU216HW,2013-08-30 07:32:00,
2013-08-30 03:37:00,66.6,61.9,29.98,WSW,248,1.1,1.1,85,2.59,,,0.81,WUHU216HW,2013-08-30 07:37:00,
2013-08-30 03:42:00,66.4,61.7,29.98,NW,315,0.9,1.6,85,2.59,,,0.81,WUHU216HW,2013-08-30 07:42:00,
2013-08-30 03:47:00,66.2,61.6,29.98,NW,315,0.0,2.0,85,2.59,,,0.81,WUHU216HW,2013-08-30 07:47:00,
2013-08-30 03:52:00,66.1,61.4,29.98,NW,315,0.4,2.0,85,2.59,,,0.81,WUHU216HW,2013-08-30 07:52:00,
2013-08-30 03:57:00,65.9,61.2,29.98,WNW,293,0.2,1.6,85,2.59,,,0.81,WUHU216HW,2013-08-30 07:57:00,
2013-08-30 04:02:00,65.9,61.6,29.98,NW,315,0.0,1.1,86,2.59,,,1.02,WUHU216HW,2013-08-30 08:02:00,
2013-08-30 04:07:00,65.9,61.6,29.98,SSW,203,0.0,0.4,86,2.59,,,1.02,WUHU216HW,2013-08-30 08:07:00,
2013-08-30 04:12:00,65.9,61.6,29.97,SSW,203,0.0,0.2,86,2.59,,,1.02,WUHU216HW,2013-08-30 08:12:00,
2013-08-30 04:16:00,65.9,61.6,29.97,WSW,248,0.0,1.8,86,2.59,,,1.02,WUHU216HW,2013-08-30 08:16:00,
2013-08-30 04:21:00,65.9,61.6,29.98,West,270,0.0,1.8,86,2.59,,,1.02,WUHU216HW,2013-08-30 08:21:00,
2013-08-30 04:26:00,65.9,61.6,29.98,West,270,0.0,0.9,86,2.59,,,1.02,WUHU216HW,2013-08-30 08:26:00,
2013-08-30 04:31:00,65.9,61.6,29.98,SW,225,0.2,1.1,86,2.59,,,1.02,WUHU216HW,2013-08-30 08:31:00,
2013-08-30 04:36:00,65.7,61.4,29.98,WSW,248,0.7,1.6,86,2.59,,,1.02,WUHU216HW,2013-08-30 08:36:00,
2013-08-30 04:41:00,65.7,61.4,29.97,SW,225,0.9,1.6,86,2.59,,,1.02,WUHU216HW,2013-08-30 08:41:00,
2013-08-30 04:46:00,65.5,61.2,29.97,SSW,203,0.4,1.6,86,2.59,,,1.02,WUHU216HW,2013-08-30 08:46:00,
2013-08-30 04:51:00,65.5,61.2,29.97,SSE,158,0.0,1.8,86,2.59,,,1.02,WUHU216HW,2013-08-30 08:51:00,
2013-08-30 04:56:00,65.3,61.0,29.98,SW,225,0.2,1.8,86,2.59,,,1.02,WUHU216HW,2013-08-30 08:56:00,
2013-08-30 05:01:00,65.3,61.0,29.98,SSW,203,0.0,1.1,86,2.59,,,1.22,WUHU216HW,2013-08-30 09:01:00,
2013-08-30 05:06:00,65.3,61.0,29.97,SSW,203,0.0,1.1,86,2.59,,,1.22,WUHU216HW,2013-08-30 09:06:00,
2013-08-30 05:11:00,65.3,61.0,29.97,SW,225,1.1,1.8,86,2.59,,,1.22,WUHU216HW,2013-08-30 09:11:00,
2013-08-30 05:16:00,65.2,60.8,29.97,South,180,0.0,1.8,86,2.59,,,1.22,WUHU216HW,2013-08-30 09:16:00,
2013-08-30 05:21:00,65.2,61.2,29.97,WSW,248,1.6,1.8,87,2.59,,,1.22,WUHU216HW,2013-08-30 09:21:00,
2013-08-30 05:26:00,65.2,60.6,29.97,West,270,1.3,2.2,85,2.59,,,1.22,WUHU216HW,2013-08-30 09:26:00,
2013-08-30 05:31:00,65.2,60.8,29.97,SW,225,2.2,2.5,86,2.59,,,1.22,WUHU216HW,2013-08-30 09:31:00,
2013-08-30 05:36:00,65.2,60.8,29.97,SW,225,2.0,3.1,86,2.59,,,1.22,WUHU216HW,2013-08-30 09:36:00,
2013-08-30 05:41:00,65.0,60.7,29.97,SSE,158,1.1,3.1,86,2.59,,,1.22,WUHU216HW,2013-08-30 09:41:00,
2013-08-30 05:46:00,65.0,61.0,29.97,SSW,203,0.0,2.5,87,2.59,,,1.22,WUHU216HW,2013-08-30 09:46:00,
2013-08-30 05:51:00,65.0,61.0,29.97,SSW,203,1.3,2.5,87,2.59,,,1.22,WUHU216HW,2013-08-30 09:51:00,
2013-08-30 05:56:00,64.8,60.8,29.97,WSW,248,1.8,2.9,87,2.59,,,1.22,WUHU216HW,2013-08-30 09:56:00,
2013-08-30 06:01:00,64.8,60.8,29.97,SW,225,1.8,3.1,87,2.59,,,1.42,WUHU216HW,2013-08-30 10:01:00,
2013-08-30 06:06:00,64.8,60.8,29.98,SW,225,1.1,3.1,87,2.59,,,1.42,WUHU216HW,2013-08-30 10:06:00,
2013-08-30 06:11:00,64.8,60.8,29.98,SSW,203,0.4,2.7,87,2.59,,,1.42,WUHU216HW,2013-08-30 10:11:00,
2013-08-30 06:16:00,64.8,60.8,29.98,SSW,203,0.0,2.7,87,2.59,,,1.42,WUHU216HW,2013-08-30 10:16:00,
2013-08-30 06:21:00,64.8,60.8,29.97,SSE,158,0.0,1.1,87,2.59,,,1.42,WUHU216HW,2013-08-30 10:21:00,
2013-08-30 06:26:00,64.8,60.8,29.97,South,180,0.0,0.0,87,2.59,,,1.42,WUHU216HW,2013-08-30 10:26:00,
2013-08-30 06:31:00,64.8,60.8,29.97,SW,225,0.0,0.0,87,2.59,,,1.42,WUHU216HW,2013-08-30 10:31:00,
2013-08-30 06:36:00,64.8,60.8,29.97,SSW,203,0.0,0.0,87,2.59,,,1.42,WUHU216HW,2013-08-30 10:36:00,
2013-08-30 06:41:00,64.8,60.8,29.97,NNW,338,0.9,2.0,87,2.59,,,1.42,WUHU216HW,2013-08-30 10:41:00,
2013-08-30 06:46:00,64.6,60.7,29.97,NNW,338,0.0,2.0,87,2.59,,,1.42,WUHU216HW,2013-08-30 10:46:00,
2013-08-30 06:51:00,64.6,60.7,29.97,SW,225,0.0,1.6,87,2.59,,,1.42,WUHU216HW,2013-08-30 10:51:00,
2013-08-30 06:56:00,64.6,60.7,29.98,SW,225,1.1,1.1,87,2.59,,,1.42,WUHU216HW,2013-08-30 10:56:00,
2013-08-30 07:01:00,64.6,60.7,29.98,SSE,158,0.0,1.1,87,2.59,,,1.63,WUHU216HW,2013-08-30 11:01:00,
2013-08-30 07:06:00,64.6,60.7,29.97,South,180,0.9,1.1,87,2.59,,,1.63,WUHU216HW,2013-08-30 11:06:00,
2013-08-30 07:11:00,64.6,60.7,29.97,SSW,203,0.0,1.1,87,2.59,,,1.63,WUHU216HW,2013-08-30 11:11:00,
2013-08-30 07:16:00,64.8,60.8,29.97,SW,225,1.6,1.8,87,2.59,,,1.63,WUHU216HW,2013-08-30 11:16:00,
2013-08-30 07:21:00,64.8,60.8,29.97,SSW,203,2.2,2.2,87,2.59,,,1.63,WUHU216HW,2013-08-30 11:21:00,
2013-08-30 07:26:00,64.8,60.8,29.97,SW,225,1.3,2.5,87,2.59,,,1.63,WUHU216HW,2013-08-30 11:26:00,
2013-08-30 07:31:00,64.8,60.8,29.97,SW,225,0.4,2.5,87,2.59,,,1.63,WUHU216HW,2013-08-30 11:31:00,
2013-08-30 07:36:00,64.8,60.8,29.97,WSW,248,1.8,2.5,87,2.59,,,1.63,WUHU216HW,2013-08-30 11:36:00,
2013-08-30 07:41:00,65.0,61.0,29.97,WNW,293,0.7,2.5,87,2.59,,,1.63,WUHU216HW,2013-08-30 11:41:00,
2013-08-30 07:46:00,65.2,61.6,29.97,SW,225,1.1,2.9,88,2.59,,,1.63,WUHU216HW,2013-08-30 11:46:00,
2013-08-30 07:51:00,65.2,61.6,29.97,SSW,203,3.4,3.4,88,2.59,,,1.63,WUHU216HW,2013-08-30 11:51:00,
2013-08-30 07:56:00,65.3,62.0,29.97,WSW,248,2.5,3.4,89,2.59,,,1.63,WUHU216HW,2013-08-30 11:56:00,
2013-08-30 08:01:00,65.5,62.2,29.97,SSW,203,1.1,3.8,89,2.59,,,1.83,WUHU216HW,2013-08-30 12:01:00,
2013-08-30 08:06:00,65.5,62.2,29.97,SSW,203,0.7,3.8,89,2.59,,,1.83,WUHU216HW,2013-08-30 12:06:00,
2013-08-30 08:11:00,65.9,62.8,29.97,South,180,1.3,2.2,90,2.59,,,1.83,WUHU216HW,2013-08-30 12:11:00,
2013-08-30 08:16:00,65.9,62.8,29.97,SW,225,1.6,2.5,90,2.59,,,1.83,WUHU216HW,2013-08-30 12:16:00,
2013-08-30 08:21:00,66.1,63.0,29.97,SSW,203,0.4,2.5,90,2.59,,,1.83,WUHU216HW,2013-08-30 12:21:00,
2013-08-30 08:26:00,66.4,63.4,29.97,SW,225,1.8,2.5,90,2.59,,,1.83,WUHU216HW,2013-08-30 12:26:00,
2013-08-30 08:31:00,66.6,63.5,29.97,SW,225,0.7,2.5,90,2.59,,,1.83,WUHU216HW,2013-08-30 12:31:00,
2013-08-30 08:36:00,67.0,63.9,29.98,NW,315,0.4,2.5,90,2.59,,,1.83,WUHU216HW,2013-08-30 12:36:00,
2013-08-30 08:41:00,67.3,64.3,29.97,WNW,293,3.4,3.4,90,2.59,,,1.83,WUHU216HW,2013-08-30 12:41:00,
2013-08-30 08:46:00,67.5,64.4,29.97,South,180,1.1,3.4,90,2.59,,,1.83,WUHU216HW,2013-08-30 12:46:00,
2013-08-30 08:51:00,67.7,64.6,29.97,WSW,248,0.2,3.4,90,2.59,,,1.83,WUHU216HW,2013-08-30 12:51:00,
2013-08-30 08:56:00,68.0,65.0,29.97,SW,225,1.6,3.8,90,2.59,,,1.83,WUHU216HW,2013-08-30 12:56:00,
2013-08-30 09:01:00,68.4,65.3,29.97,SSW,203,1.1,3.8,90,2.59,,,2.03,WUHU216HW,2013-08-30 13:01:00,
2013-08-30 09:06:00,68.8,65.3,29.97,WSW,248,2.2,3.4,89,2.59,,,2.03,WUHU216HW,2013-08-30 13:06:00,
2013-08-30 09:11:00,69.1,65.7,29.97,WSW,248,1.3,2.2,89,2.59,,,2.03,WUHU216HW,2013-08-30 13:11:00,
2013-08-30 09:16:00,69.7,66.2,29.97,NW,315,1.8,2.5,89,2.59,,,2.03,WUHU216HW,2013-08-30 13:16:00,
2013-08-30 09:21:00,70.2,66.4,29.97,SSW,203,0.0,2.5,88,2.59,,,2.03,WUHU216HW,2013-08-30 13:21:00,
2013-08-30 09:26:00,70.9,67.1,29.97,NW,315,2.5,3.4,88,2.59,,,2.03,WUHU216HW,2013-08-30 13:26:00,
2013-08-30 09:31:00,71.3,67.2,29.97,NW,315,1.8,3.8,87,2.59,,,2.03,WUHU216HW,2013-08-30 13:31:00,
2013-08-30 09:36:00,72.0,67.6,29.97,NW,315,4.9,5.6,86,2.59,,,2.03,WUHU216HW,2013-08-30 13:36:00,
2013-08-30 09:41:00,72.7,68.0,29.97,NW,315,3.4,6.0,85,2.59,,,2.03,WUHU216HW,2013-08-30 13:41:00,
2013-08-30 09:46:00,73.1,68.3,29.96,SW,225,3.4,6.0,85,2.59,,,2.03,WUHU216HW,2013-08-30 13:46:00,
2013-08-30 09:51:00,73.6,68.5,29.96,NNW,338,4.7,6.0,84,2.59,,,2.03,WUHU216HW,2013-08-30 13:51:00,
2013-08-30 09:56:00,74.0,68.5,29.96,SW,225,2.5,6.3,83,2.59,,,2.03,WUHU216HW,2013-08-30 13:56:00,
2013-08-30 10:01:00,74.3,69.2,29.96,WNW,293,3.1,6.3,84,2.59,,,2.24,WUHU216HW,2013-08-30 14:01:00,
2013-08-30 10:06:00,74.7,69.2,29.96,West,270,4.0,5.1,83,2.59,,,2.24,WUHU216HW,2013-08-30 14:06:00,
2013-08-30 10:11:00,75.2,69.1,29.96,WNW,293,5.4,5.4,81,2.59,,,2.24,WUHU216HW,2013-08-30 14:11:00,
2013-08-30 10:16:00,75.4,69.0,29.95,NW,315,6.5,7.8,80,2.59,,,2.24,WUHU216HW,2013-08-30 14:16:00,
2013-08-30 10:21:00,75.8,69.2,29.95,North,0,0.0,7.8,80,2.59,,,2.24,WUHU216HW,2013-08-30 14:21:00,
2013-08-30 10:26:00,76.3,69.8,29.95,North,0,0.0,6.5,80,2.59,,,2.24,WUHU216HW,2013-08-30 14:26:00,
2013-08-30 10:31:00,76.9,69.5,29.95,North,0,0.0,0.0,78,2.59,,,2.24,WUHU216HW,2013-08-30 14:31:00,
2013-08-30 10:36:00,77.0,69.2,29.95,North,0,0.0,0.0,77,2.59,,,2.24,WUHU216HW,2013-08-30 14:36:00,
2013-08-30 10:41:00,77.4,69.2,29.95,North,0,0.0,0.0,76,2.59,,,2.24,WUHU216HW,2013-08-30 14:41:00,
2013-08-30 10:46:00,77.4,68.9,29.94,North,0,0.0,0.0,75,2.59,,,2.24,WUHU216HW,2013-08-30 14:46:00,
2013-08-30 10:51:00,77.8,68.8,29.94,North,0,0.0,0.0,74,2.59,,,2.24,WUHU216HW,2013-08-30 14:51:00,
2013-08-30 10:56:00,78.1,69.5,29.94,North,0,0.0,0.0,75,2.59,,,2.24,WUHU216HW,2013-08-30 14:56:00,
2013-08-30 11:01:00,78.3,69.3,29.94,North,0,0.0,0.0,74,2.59,,,2.44,WUHU216HW,2013-08-30 15:01:00,
2013-08-30 11:06:00,78.5,68.7,29.94,North,0,0.0,0.0,72,2.59,,,2.44,WUHU216HW,2013-08-30 15:06:00,
2013-08-30 11:11:00,78.5,68.7,29.94,North,0,0.0,0.0,72,2.59,,,2.44,WUHU216HW,2013-08-30 15:11:00,
2013-08-30 11:16:00,78.8,69.0,29.93,North,0,0.0,0.0,72,2.59,,,2.44,WUHU216HW,2013-08-30 15:16:00,
2013-08-30 11:21:00,79.0,69.2,29.93,North,0,0.0,0.0,72,2.59,,,2.44,WUHU216HW,2013-08-30 15:21:00,
2013-08-30 11:26:00,79.2,68.9,29.93,North,0,0.0,0.0,71,2.59,,,2.44,WUHU216HW,2013-08-30 15:26:00,
2013-08-30 11:31:00,79.6,68.9,29.93,North,0,0.0,0.0,70,2.59,,,2.44,WUHU216HW,2013-08-30 15:31:00,
2013-08-30 11:36:00,79.9,68.4,29.93,North,0,0.0,0.0,68,2.59,,,2.44,WUHU216HW,2013-08-30 15:36:00,
2013-08-30 11:41:00,80.3,68.3,29.93,NW,315,6.9,8.9,67,2.59,,,2.44,WUHU216HW,2013-08-30 15:41:00,
2013-08-30 11:46:00,80.8,69.3,29.93,NW,315,3.4,8.9,68,2.59,,,2.44,WUHU216HW,2013-08-30 15:46:00,
2013-08-30 11:51:00,81.0,68.6,29.92,NNW,338,6.3,8.5,66,2.59,,,2.44,WUHU216HW,2013-08-30 15:51:00,
2013-08-30 11:56:00,81.4,68.9,29.92,NNW,338,3.6,7.8,66,2.59,,,2.44,WUHU216HW,2013-08-30 15:56:00,
2013-08-30 12:01:00,81.7,69.2,29.92,NW,315,3.8,8.1,66,2.59,,,2.64,WUHU216HW,2013-08-30 16:01:00,
2013-08-30 12:06:00,82.1,68.6,29.92,WNW,293,6.7,9.2,64,2.59,,,2.64,WUHU216HW,2013-08-30 16:06:00,
2013-08-30 12:11:00,82.1,68.6,29.92,WNW,293,8.1,9.2,64,2.59,,,2.64,WUHU216HW,2013-08-30 16:11:00,
2013-08-30 12:16:00,81.7,68.3,29.91,NNW,338,3.8,9.2,64,2.59,,,2.64,WUHU216HW,2013-08-30 16:16:00,
2013-08-30 12:21:00,81.7,68.3,29.91,NW,315,5.8,9.6,64,2.59,,,2.64,WUHU216HW,2013-08-30 16:21:00,
2013-08-30 12:26:00,81.7,67.9,29.91,WNW,293,2.2,9.6,63,2.59,,,2.64,WUHU216HW,2013-08-30 16:26:00,
2013-08-30 12:31:00,81.7,67.9,29.91,West,270,6.7,9.8,63,2.59,,,2.64,WUHU216HW,2013-08-30 16:31:00,
2013-08-30 12:36:00,81.5,68.1,29.91,WNW,293,8.9,9.8,64,2.59,,,2.64,WUHU216HW,2013-08-30 16:36:00,
2013-08-30 12:41:00,81.5,68.6,29.91,NW,315,6.3,8.9,65,2.59,,,2.64,WUHU216HW,2013-08-30 16:41:00,
2013-08-30 12:46:00,81.7,68.3,29.91,WNW,293,3.8,9.2,64,2.59,,,2.64,WUHU216HW,2013-08-30 16:46:00,
2013-08-30 12:51:00,81.7,68.8,29.91,NW,315,5.4,9.8,65,2.59,,,2.64,WUHU216HW,2013-08-30 16:51:00,
2013-08-30 12:56:00,82.3,68.8,29.91,NNW,338,6.5,9.8,64,2.59,,,2.64,WUHU216HW,2013-08-30 16:56:00,
2013-08-30 13:01:00,82.6,69.1,29.91,WSW,248,6.9,8.3,64,2.59,,,2.85,WUHU216HW,2013-08-30 17:01:00,
2013-08-30 13:06:00,82.1,68.1,29.91,WNW,293,6.5,11.9,63,2.59,,,2.85,WUHU216HW,2013-08-30 17:06:00,
2013-08-30 13:11:00,81.7,68.3,29.91,NW,315,4.0,11.9,64,2.59,,,2.85,WUHU216HW,2013-08-30 17:11:00,
2013-08-30 13:16:00,82.1,68.6,29.90,NW,315,5.4,8.7,64,2.59,,,2.85,WUHU216HW,2013-08-30 17:16:00,
2013-08-30 13:21:00,83.0,69.0,29.90,NW,315,9.2,9.8,63,2.59,,,2.85,WUHU216HW,2013-08-30 17:21:00,
2013-08-30 13:26:00,83.0,68.6,29.90,NNW,338,4.7,9.8,62,2.59,,,2.85,WUHU216HW,2013-08-30 17:26:00,
2013-08-30 13:31:00,83.0,68.6,29.90,NW,315,4.5,9.8,62,2.59,,,2.85,WUHU216HW,2013-08-30 17:31:00,
2013-08-30 13:36:00,83.0,68.1,29.90,West,270,4.9,9.8,61,2.59,,,2.85,WUHU216HW,2013-08-30 17:36:00,
2013-08-30 13:41:00,83.0,68.6,29.89,West,270,4.7,9.8,62,2.59,,,2.85,WUHU216HW,2013-08-30 17:41:00,
2013-08-30 13:46:00,83.5,69.6,29.89,NW,315,6.9,8.5,63,2.59,,,2.85,WUHU216HW,2013-08-30 17:46:00,
2013-08-30 13:51:00,83.3,68.9,29.89,WNW,293,3.8,8.5,62,2.59,,,2.85,WUHU216HW,2013-08-30 17:51:00,
2013-08-30 13:56:00,82.4,67.1,29.89,WNW,293,6.7,12.8,60,2.59,,,2.85,WUHU216HW,2013-08-30 17:56:00,
2013-08-30 14:01:00,81.7,67.4,29.89,NW,315,7.6,12.8,62,2.59,,,3.05,WUHU216HW,2013-08-30 18:01:00,
2013-08-30 14:06:00,81.4,67.5,29.89,NW,315,6.9,10.7,63,2.59,,,3.05,WUHU216HW,2013-08-30 18:06:00,
2013-08-30 14:11:00,81.2,67.8,29.89,NW,315,4.0,8.7,64,2.59,,,3.05,WUHU216HW,2013-08-30 18:11:00,
2013-08-30 14:16:00,81.0,67.7,29.89,NW,315,3.6,7.2,64,2.59,,,3.05,WUHU216HW,2013-08-30 18:16:00,
2013-08-30 14:21:00,81.0,67.7,29.89,NNW,338,5.8,9.8,64,2.59,,,3.05,WUHU216HW,2013-08-30 18:21:00,
2013-08-30 14:26:00,80.8,67.5,29.89,NW,315,3.8,9.8,64,2.59,,,3.05,WUHU216HW,2013-08-30 18:26:00,
2013-08-30 14:31:00,81.0,68.1,29.89,NNW,338,4.0,9.2,65,2.59,,,3.05,WUHU216HW,2013-08-30 18:31:00,
2013-08-30 14:36:00,80.8,68.4,29.89,NW,315,8.5,8.5,66,2.59,,,3.05,WUHU216HW,2013-08-30 18:36:00,
2013-08-30 14:41:00,80.5,67.6,29.89,West,270,5.1,9.8,65,2.59,,,3.05,WUHU216HW,2013-08-30 18:41:00,
2013-08-30 14:46:00,80.5,68.0,29.89,WNW,293,9.2,9.8,66,2.59,,,3.05,WUHU216HW,2013-08-30 18:46:00,
2013-08-30 14:51:00,80.3,67.9,29.89,NW,315,9.8,11.9,66,2.59,,,3.05,WUHU216HW,2013-08-30 18:51:00,
2013-08-30 14:56:00,79.9,67.5,29.89,NNW,338,5.4,11.9,66,2.59,,,3.05,WUHU216HW,2013-08-30 18:56:00,
2013-08-30 15:01:00,79.7,67.3,29.89,West,270,4.5,11.4,66,2.59,,,3.25,WUHU216HW,2013-08-30 19:01:00,
2013-08-30 15:06:00,79.7,67.8,29.89,WNW,293,7.2,11.6,67,2.59,,,3.25,WUHU216HW,2013-08-30 19:06:00,
2013-08-30 15:11:00,79.9,68.0,29.89,West,270,9.4,12.1,67,2.59,,,3.25,WUHU216HW,2013-08-30 19:11:00,
2013-08-30 15:16:00,79.9,68.0,29.88,North,0,10.1,12.1,67,2.59,,,3.25,WUHU216HW,2013-08-30 19:16:00,
2013-08-30 15:21:00,79.6,68.0,29.88,WNW,293,11.6,11.6,68,2.59,,,3.25,WUHU216HW,2013-08-30 19:21:00,
2013-08-30 15:26:00,79.0,67.5,29.87,NW,315,5.6,11.6,68,2.59,,,3.25,WUHU216HW,2013-08-30 19:26:00,
2013-08-30 15:31:00,79.2,68.1,29.87,NW,315,3.4,11.6,69,2.59,,,3.25,WUHU216HW,2013-08-30 19:31:00,
2013-08-30 15:36:00,79.4,68.3,29.86,NW,315,7.8,11.4,69,2.59,,,3.25,WUHU216HW,2013-08-30 19:36:00,
2013-08-30 15:41:00,79.6,68.5,29.86,NNW,338,6.3,8.9,69,2.59,,,3.25,WUHU216HW,2013-08-30 19:41:00,
2013-08-30 15:46:00,79.6,68.5,29.86,WNW,293,8.9,11.9,69,2.59,,,3.25,WUHU216HW,2013-08-30 19:46:00,
2013-08-30 15:51:00,79.4,68.3,29.86,West,270,8.1,11.9,69,2.59,,,3.25,WUHU216HW,2013-08-30 19:51:00,
2013-08-30 15:56:00,79.2,68.6,29.86,NW,315,6.0,9.8,70,2.59,,,3.25,WUHU216HW,2013-08-30 19:56:00,
2013-08-30 16:01:00,79.0,68.8,29.86,NW,315,4.9,8.1,71,2.59,,,3.46,WUHU216HW,2013-08-30 20:01:00,
2013-08-30 16:06:00,78.8,68.6,29.85,West,270,6.3,10.3,71,2.59,,,3.46,WUHU216HW,2013-08-30 20:06:00,
2013-08-30 16:11:00,78.7,68.5,29.85,NW,315,6.3,10.3,71,2.59,,,3.46,WUHU216HW,2013-08-30 20:11:00,
2013-08-30 16:16:00,78.8,68.6,29.85,NW,315,4.7,10.3,71,2.59,,,3.46,WUHU216HW,2013-08-30 20:16:00,
2013-08-30 16:21:00,79.7,69.1,29.85,WNW,293,13.0,13.0,70,2.59,,,3.46,WUHU216HW,2013-08-30 20:21:00,
2013-08-30 16:26:00,79.6,68.9,29.85,NW,315,7.8,13.0,70,2.59,,,3.46,WUHU216HW,2013-08-30 20:26:00,
2013-08-30 16:31:00,79.9,69.3,29.84,WNW,293,7.4,13.0,70,2.59,,,3.46,WUHU216HW,2013-08-30 20:31:00,
2013-08-30 16:36:00,80.5,69.4,29.84,WNW,293,8.7,8.7,69,2.59,,,3.46,WUHU216HW,2013-08-30 20:36:00,
2013-08-30 16:41:00,80.3,68.8,29.84,West,270,5.1,9.4,68,2.59,,,3.46,WUHU216HW,2013-08-30 20:41:00,
2013-08-30 16:46:00,80.5,69.8,29.83,NNW,338,3.8,9.4,70,2.59,,,3.46,WUHU216HW,2013-08-30 20:46:00,
2013-08-30 16:51:00,81.2,69.6,29.83,WSW,248,6.5,7.8,68,2.59,,,3.46,WUHU216HW,2013-08-30 20:51:00,
2013-08-30 16:56:00,81.7,70.1,29.83,WNW,293,6.9,7.8,68,2.59,,,3.46,WUHU216HW,2013-08-30 20:56:00,
2013-08-30 17:01:00,81.7,69.7,29.83,NW,315,10.5,10.5,67,2.59,,,3.66,WUHU216HW,2013-08-30 21:01:00,
2013-08-30 17:06:00,81.4,68.9,29.82,WSW,248,5.4,12.1,66,2.59,,,3.66,WUHU216HW,2013-08-30 21:06:00,
2013-08-30 17:11:00,80.8,68.9,29.82,NW,315,5.6,12.1,67,2.59,,,3.66,WUHU216HW,2013-08-30 21:11:00,
2013-08-30 17:16:00,81.0,69.0,29.82,West,270,4.5,8.7,67,2.59,,,3.66,WUHU216HW,2013-08-30 21:16:00,
2013-08-30 17:20:00,81.2,68.7,29.81,NW,315,4.3,9.2,66,2.59,,,3.66,WUHU216HW,2013-08-30 21:20:00,
2013-08-30 17:25:00,81.9,69.0,29.82,WNW,293,6.0,10.5,65,2.59,,,3.66,WUHU216HW,2013-08-30 21:25:00,
2013-08-30 17:30:00,81.7,68.8,29.82,NNW,338,6.3,10.5,65,2.59,,,3.66,WUHU216HW,2013-08-30 21:30:00,
2013-08-30 17:36:00,81.2,68.2,29.82,NW,315,7.4,9.8,65,2.59,,,3.66,WUHU216HW,2013-08-30 21:36:00,
2013-08-30 17:41:00,80.8,68.4,29.81,West,270,8.5,10.3,66,2.59,,,3.66,WUHU216HW,2013-08-30 21:41:00,
2013-08-30 17:46:00,80.3,67.4,29.82,West,270,11.2,11.2,65,2.59,,,3.66,WUHU216HW,2013-08-30 21:46:00,
2013-08-30 17:50:00,80.3,67.9,29.82,WNW,293,6.3,11.2,66,2.59,,,3.66,WUHU216HW,2013-08-30 21:50:00,
2013-08-30 17:55:00,80.3,67.9,29.82,NNW,338,8.5,11.4,66,2.59,,,3.66,WUHU216HW,2013-08-30 21:55:00,
2013-08-30 18:00:00,79.9,68.0,29.82,NW,315,5.6,11.4,67,2.59,,,3.86,WUHU216HW,2013-08-30 22:00:00,
2013-08-30 18:05:00,79.7,67.8,29.82,NW,315,11.2,11.2,67,2.59,,,3.86,WUHU216HW,2013-08-30 22:05:00,
2013-08-30 18:10:00,79.2,67.7,29.82,NW,315,6.3,11.2,68,2.59,,,3.86,WUHU216HW,2013-08-30 22:10:00,
2013-08-30 18:15:00,78.5,67.5,29.82,NNW,338,8.5,11.2,69,2.59,,,3.86,WUHU216HW,2013-08-30 22:15:00,
2013-08-30 18:20:00,78.1,67.6,29.82,NW,315,5.1,9.2,70,2.59,,,3.86,WUHU216HW,2013-08-30 22:20:00,
2013-08-30 18:25:00,77.8,67.2,29.82,WNW,293,4.7,8.5,70,2.59,,,3.86,WUHU216HW,2013-08-30 22:25:00,
2013-08-30 18:30:00,77.4,67.3,29.81,NW,315,4.9,8.5,71,2.59,,,3.86,WUHU216HW,2013-08-30 22:30:00,
2013-08-30 18:35:00,77.4,67.3,29.81,WNW,293,2.5,6.3,71,2.59,,,3.86,WUHU216HW,2013-08-30 22:35:00,
2013-08-30 18:40:00,77.6,67.5,29.81,WNW,293,2.0,5.4,71,2.59,,,3.86,WUHU216HW,2013-08-30 22:40:00,
2013-08-30 18:45:00,77.4,67.0,29.81,NW,315,3.4,4.5,70,2.59,,,3.86,WUHU216HW,2013-08-30 22:45:00,
2013-08-30 18:50:00,77.4,67.0,29.81,NNW,338,3.1,4.5,70,2.59,,,3.86,WUHU216HW,2013-08-30 22:50:00,
2013-08-30 18:55:00,77.4,67.0,29.81,WNW,293,3.4,4.0,70,2.59,,,3.86,WUHU216HW,2013-08-30 22:55:00,
2013-08-30 19:00:00,77.4,67.0,29.80,NW,315,1.8,3.4,70,2.59,,,4.06,WUHU216HW,2013-08-30 23:00:00,
2013-08-30 19:05:00,77.4,67.3,29.80,West,270,2.2,3.4,71,2.59,,,4.06,WUHU216HW,2013-08-30 23:05:00,
2013-08-30 19:10:00,77.4,67.3,29.80,WNW,293,1.1,2.9,71,2.59,,,4.06,WUHU216HW,2013-08-30 23:10:00,
2013-08-30 19:15:00,77.2,67.1,29.80,NW,315,2.5,3.4,71,2.59,,,4.06,WUHU216HW,2013-08-30 23:15:00,
2013-08-30 19:20:00,77.2,67.1,29.80,WNW,293,1.8,3.4,71,2.59,,,4.06,WUHU216HW,2013-08-30 23:20:00,
2013-08-30 19:25:00,77.0,67.0,29.80,NNW,338,2.0,2.5,71,2.59,,,4.06,WUHU216HW,2013-08-30 23:25:00,
2013-08-30 19:30:00,77.0,67.0,29.80,SW,225,1.1,2.5,71,2.59,,,4.06,WUHU216HW,2013-08-30 23:30:00,
2013-08-30 19:35:00,76.9,66.8,29.81,NW,315,1.8,2.5,71,2.59,,,4.06,WUHU216HW,2013-08-30 23:35:00,
2013-08-30 19:40:00,76.5,66.9,29.81,WNW,293,2.5,3.4,72,2.59,,,4.06,WUHU216HW,2013-08-30 23:40:00,
2013-08-30 19:45:00,76.3,66.7,29.81,West,270,1.8,3.4,72,2.59,,,4.06,WUHU216HW,2013-08-30 23:45:00,
2013-08-30 19:50:00,76.1,66.5,29.81,WSW,248,1.1,2.5,72,2.59,,,4.06,WUHU216HW,2013-08-30 23:50:00,
2013-08-30 19:55:00,76.1,66.5,29.81,WSW,248,1.6,3.6,72,2.59,,,4.06,WUHU216HW,2013-08-30 23:55:00,
2013-08-30 20:00:00,76.0,66.7,29.81,WNW,293,1.8,3.6,73,2.59,,,4.27,WUHU216HW,2013-08-31 00:00:00,
2013-08-30 20:05:00,75.8,66.5,29.81,SW,225,0.9,3.4,73,2.59,,,4.27,WUHU216HW,2013-08-31 00:05:00,
2013-08-30 20:10:00,75.6,66.3,29.81,SSW,203,2.5,2.5,73,2.59,,,4.27,WUHU216HW,2013-08-31 00:10:00,
2013-08-30 20:15:00,75.6,66.3,29.81,West,270,0.7,2.5,73,2.59,,,4.27,WUHU216HW,2013-08-31 00:15:00,
2013-08-30 20:20:00,75.4,66.2,29.81,NW,315,2.2,2.7,73,2.59,,,4.27,WUHU216HW,2013-08-31 00:20:00,
2013-08-30 20:25:00,75.2,66.4,29.82,West,270,1.1,2.9,74,2.59,,,4.27,WUHU216HW,2013-08-31 00:25:00,
2013-08-30 20:30:00,75.2,66.4,29.81,SW,225,0.4,2.9,74,2.59,,,4.27,WUHU216HW,2013-08-31 00:30:00,
2013-08-30 20:35:00,75.2,66.4,29.81,SSW,203,0.0,2.0,74,2.59,,,4.27,WUHU216HW,2013-08-31 00:35:00,
2013-08-30 20:40:00,75.2,66.4,29.81,West,270,0.0,1.1,74,2.59,,,4.27,WUHU216HW,2013-08-31 00:40:00,
2013-08-30 20:45:00,75.2,66.8,29.80,South,180,1.1,1.8,75,2.59,,,4.27,WUHU216HW,2013-08-31 00:45:00,
2013-08-30 20:50:00,75.1,66.6,29.79,SW,225,1.6,2.5,75,2.59,,,4.27,WUHU216HW,2013-08-31 00:50:00,
2013-08-30 20:55:00,74.9,66.4,29.79,South,180,0.2,2.5,75,2.59,,,4.27,WUHU216HW,2013-08-31 00:55:00,
2013-08-30 21:00:00,74.7,66.2,29.79,SW,225,2.5,2.5,75,2.59,,,4.47,WUHU216HW,2013-08-31 01:00:00,
2013-08-30 21:05:00,74.7,66.2,29.79,West,270,2.9,3.4,75,2.59,,,4.47,WUHU216HW,2013-08-31 01:05:00,
2013-08-30 21:10:00,74.5,66.5,29.78,WSW,248,2.5,3.8,76,2.59,,,4.47,WUHU216HW,2013-08-31 01:10:00,
2013-08-30 21:15:00,74.3,65.9,29.78,NNW,338,1.6,3.8,75,2.59,,,4.47,WUHU216HW,2013-08-31 01:15:00,
2013-08-30 21:20:00,74.2,66.2,29.78,SSW,203,1.3,3.4,76,2.59,,,4.47,WUHU216HW,2013-08-31 01:20:00,
2013-08-30 21:25:00,74.2,66.2,29.78,SSW,203,1.1,3.4,76,2.59,,,4.47,WUHU216HW,2013-08-31 01:25:00,
2013-08-30 21:30:00,74.0,66.0,29.77,SW,225,1.8,3.4,76,2.59,,,4.47,WUHU216HW,2013-08-31 01:30:00,
2013-08-30 21:35:00,74.0,66.0,29.77,NW,315,1.8,4.5,76,2.59,,,4.47,WUHU216HW,2013-08-31 01:35:00,
2013-08-30 21:40:00,74.0,66.3,29.76,South,180,2.2,4.5,77,2.59,,,4.47,WUHU216HW,2013-08-31 01:40:00,
2013-08-30 21:45:00,74.0,66.3,29.77,West,270,1.3,4.9,77,2.59,,,4.47,WUHU216HW,2013-08-31 01:45:00,
2013-08-30 21:50:00,73.8,65.8,29.77,SW,225,2.9,4.9,76,2.59,,,4.47,WUHU216HW,2013-08-31 01:50:00,
2013-08-30 21:55:00,73.8,65.8,29.78,WSW,248,3.4,4.0,76,2.59,,,4.47,WUHU216HW,2013-08-31 01:55:00,
2013-08-30 22:00:00,74.0,66.0,29.78,NW,315,2.5,4.0,76,2.59,,,4.47,WUHU216HW,2013-08-31 02:00:00,
2013-08-30 22:05:00,74.0,66.0,29.78,NW,315,1.1,3.4,76,2.59,,,4.67,WUHU216HW,2013-08-31 02:05:00,
2013-08-30 22:10:00,74.0,66.0,29.79,NNW,338,0.7,3.4,76,2.59,,,4.67,WUHU216HW,2013-08-31 02:10:00,
2013-08-30 22:15:00,74.2,66.2,29.78,NNW,338,1.1,1.3,76,2.59,,,4.67,WUHU216HW,2013-08-31 02:15:00,
2013-08-30 22:20:00,74.0,66.0,29.78,WNW,293,1.8,1.8,76,2.59,,,4.67,WUHU216HW,2013-08-31 02:20:00,
2013-08-30 22:25:00,74.0,66.0,29.78,WNW,293,0.0,2.0,76,2.59,,,4.67,WUHU216HW,2013-08-31 02:25:00,
2013-08-30 22:30:00,73.8,66.2,29.78,South,180,0.0,2.0,77,2.59,,,4.67,WUHU216HW,2013-08-31 02:30:00,
2013-08-30 22:35:00,73.8,66.2,29.77,WSW,248,2.5,2.5,77,2.59,,,4.67,WUHU216HW,2013-08-31 02:35:00,
2013-08-30 22:40:00,73.8,66.2,29.77,SW,225,1.1,2.5,77,2.59,,,4.67,WUHU216HW,2013-08-31 02:40:00,
2013-08-30 22:45:00,73.3,66.1,29.76,NW,315,3.6,4.3,78,2.59,,,4.67,WUHU216HW,2013-08-31 02:45:00,
2013-08-30 22:50:00,73.1,65.9,29.76,West,270,6.9,7.6,78,2.59,,,4.67,WUHU216HW,2013-08-31 02:50:00,
2013-08-30 22:55:00,73.1,65.9,29.76,NW,315,5.1,9.2,78,2.59,,,4.67,WUHU216HW,2013-08-31 02:55:00,
2013-08-30 23:00:00,73.4,66.3,29.76,West,270,4.9,9.2,78,2.59,,,4.67,WUHU216HW,2013-08-31 03:00:00,
2013-08-30 23:05:00,73.8,66.6,29.77,NNW,338,1.8,8.1,78,2.59,,,4.88,WUHU216HW,2013-08-31 03:05:00,
2013-08-30 23:10:00,73.8,66.6,29.78,NW,315,2.5,6.0,78,2.59,,,4.88,WUHU216HW,2013-08-31 03:10:00,
2013-08-30 23:15:00,74.0,66.7,29.77,West,270,1.3,4.9,78,2.59,,,4.88,WUHU216HW,2013-08-31 03:15:00,
2013-08-30 23:20:00,73.8,66.6,29.77,West,270,1.8,4.9,78,2.59,,,4.88,WUHU216HW,2013-08-31 03:20:00,
2013-08-30 23:25:00,73.8,66.6,29.76,WSW,248,0.9,4.0,78,2.59,,,4.88,WUHU216HW,2013-08-31 03:25:00,
2013-08-30 23:30:00,73.8,66.6,29.76,West,270,1.6,2.9,78,2.59,,,4.88,WUHU216HW,2013-08-31 03:30:00,
2013-08-30 23:35:00,73.6,66.8,29.76,SSW,203,0.0,2.9,79,2.59,,,4.88,WUHU216HW,2013-08-31 03:35:00,
2013-08-30 23:40:00,73.6,66.8,29.76,SE,135,1.6,2.5,79,2.59,,,4.88,WUHU216HW,2013-08-31 03:40:00,
2013-08-30 23:45:00,73.4,67.3,29.76,ESE,113,3.4,4.5,81,2.59,,,4.88,WUHU216HW,2013-08-31 03:45:00,
2013-08-30 23:50:00,73.1,67.0,29.76,SE,135,2.5,4.9,81,2.59,,,4.88,WUHU216HW,2013-08-31 03:50:00,
2013-08-30 23:55:00,72.7,66.6,29.76,SSE,158,2.5,4.9,81,2.59,,,4.88,WUHU216HW,2013-08-31 03:55:00,